Time;durP1;ratioP1;P1;durP2;ratioP2;P2;SDS_P1;SDS_P2;PMS_P1;PMS_P2;Temp;Humidity;BMP_temperature;BMP_pressure;BME280_temperature;BME280_humidity;BME280_pressure;Samples;Min_cycle;Max_cycle;Signal;HPM_P1;HPM_P2
2021/05/11 00:01:27;;;;;;;0.80;0.60;;;;;;;;;;5031153;28;20378;-71
2021/05/11 00:03:53;;;;;;;1.33;0.80;;;;;;;;;;5029899;28;20384;-72
2021/05/11 00:06:19;;;;;;;1.13;0.83;;;;;;;;;;5030610;28;20414;-70
2021/05/11 00:08:45;;;;;;;0.93;0.83;;;;;;;;;;5030617;28;20963;-70
2021/05/11 00:11:11;;;;;;;1.60;0.80;;;;;;;;;;5030296;28;20379;-71
2021/05/11 00:13:37;;;;;;;4.27;1.67;;;;;;;;;;5030804;28;20411;-71
2021/05/11 00:16:04;;;;;;;1.10;0.77;;;;;;;;;;5031306;28;20461;-71
2021/05/11 00:18:30;;;;;;;1.30;0.67;;;;;;;;;;5034561;28;20447;-70
2021/05/11 00:20:56;;;;;;;0.80;0.73;;;;;;;;;;5034585;28;20383;-70
2021/05/11 00:23:22;;;;;;;0.90;0.70;;;;;;;;;;5034427;28;20558;-70
2021/05/11 00:25:48;;;;;;;0.80;0.70;;;;;;;;;;5034814;28;20486;-70
2021/05/11 00:28:14;;;;;;;1.00;0.80;;;;;;;;;;5034475;28;20859;-71
2021/05/11 00:30:40;;;;;;;0.93;0.77;;;;;;;;;;5034473;28;21045;-70
2021/05/11 00:33:06;;;;;;;0.70;0.50;;;;;;;;;;5034208;28;20382;-70
2021/05/11 00:35:32;;;;;;;1.13;1.03;;;;;;;;;;5034724;28;20462;-70
2021/05/11 00:37:58;;;;;;;3.10;1.20;;;;;;;;;;5034385;28;20399;-71
2021/05/11 00:40:24;;;;;;;1.20;0.67;;;;;;;;;;5033949;28;20424;-70
2021/05/11 00:42:49;;;;;;;0.70;0.50;;;;;;;;;;5034898;28;20400;-71
2021/05/11 00:45:15;;;;;;;1.00;0.80;;;;;;;;;;5033870;28;20423;-71
2021/05/11 00:47:41;;;;;;;2.10;1.43;;;;;;;;;;5034498;28;20428;-71
2021/05/11 00:50:08;;;;;;;0.90;0.80;;;;;;;;;;5033816;28;20404;-71
2021/05/11 00:52:34;;;;;;;0.90;0.80;;;;;;;;;;5034167;28;20396;-72
2021/05/11 00:55:00;;;;;;;1.17;0.90;;;;;;;;;;5033643;28;20812;-71
2021/05/11 00:57:30;;;;;;;1.27;0.90;;;;;;;;;;5034099;28;20894;-71
2021/05/11 00:59:57;;;;;;;0.87;0.67;;;;;;;;;;5034207;28;20442;-71
2021/05/11 01:02:23;;;;;;;1.00;0.90;;;;;;;;;;5033714;28;20800;-70
2021/05/11 01:04:49;;;;;;;1.00;0.90;;;;;;;;;;5033702;28;20419;-70
2021/05/11 01:07:15;;;;;;;1.27;0.80;;;;;;;;;;5033683;28;20419;-71
2021/05/11 01:09:41;;;;;;;1.03;0.93;;;;;;;;;;5034268;28;20741;-71
2021/05/11 01:12:07;;;;;;;0.93;0.77;;;;;;;;;;5033592;28;20419;-70
2021/05/11 01:14:33;;;;;;;0.80;0.70;;;;;;;;;;5033773;28;20433;-70
2021/05/11 01:17:00;;;;;;;1.40;0.70;;;;;;;;;;5033606;28;20393;-70
2021/05/11 01:24:54;;;;;;;0.73;0.57;;;;;;;;;;5030625;28;20474;-70
2021/05/11 01:43:51;;;;;;;6.53;2.30;;;;;;;;;;5031337;28;20422;-72
2021/05/11 01:45:04;;;;;;;0.97;0.80;;;;;;;;;;5023243;28;20418;-71
2021/05/11 01:55:05;;;;;;;1.10;0.70;;;;;;;;;;5029571;28;20494;-70
2021/05/11 01:58:07;;;;;;;1.77;0.70;;;;;;;;;;5013327;28;20420;-74
2021/05/11 02:22:41;;;;;;;0.90;0.70;;;;;;;;;;5033028;28;20405;-73
2021/05/11 02:25:08;;;;;;;1.37;1.27;;;;;;;;;;5032395;28;20419;-73
2021/05/11 02:27:36;;;;;;;1.80;1.00;;;;;;;;;;5032588;28;20422;-72
2021/05/11 02:30:03;;;;;;;1.57;0.67;;;;;;;;;;5031792;28;20430;-75
2021/05/11 02:32:29;;;;;;;0.83;0.67;;;;;;;;;;5032456;28;20494;-72
2021/05/11 02:34:54;;;;;;;1.00;0.90;;;;;;;;;;5030592;28;20551;-73
2021/05/11 02:37:20;;;;;;;0.90;0.70;;;;;;;;;;5032095;28;20495;-72
2021/05/11 02:39:46;;;;;;;1.00;0.63;;;;;;;;;;5029731;28;20440;-72
2021/05/11 02:42:13;;;;;;;2.10;1.00;;;;;;;;;;5032612;28;20417;-73
2021/05/11 02:44:45;;;;;;;0.90;0.60;;;;;;;;;;5030742;28;20438;-72
2021/05/11 02:47:11;;;;;;;1.50;1.00;;;;;;;;;;5032095;28;20426;-72
2021/05/11 02:49:40;;;;;;;0.93;0.83;;;;;;;;;;5031899;28;20416;-72
2021/05/11 02:52:06;;;;;;;0.90;0.70;;;;;;;;;;5031894;28;20470;-72
2021/05/11 02:54:32;;;;;;;0.80;0.60;;;;;;;;;;5032071;28;20945;-73
2021/05/11 02:56:58;;;;;;;4.50;0.60;;;;;;;;;;5030912;28;20442;-73
2021/05/11 02:59:24;;;;;;;1.60;0.77;;;;;;;;;;5030962;28;20395;-73
2021/05/11 03:01:58;;;;;;;0.80;0.70;;;;;;;;;;5109130;27;20570;-76
2021/05/11 03:04:24;;;;;;;1.47;0.67;;;;;;;;;;5094591;28;20380;-76
2021/05/11 03:06:57;;;;;;;1.13;0.60;;;;;;;;;;5087357;28;20900;-74
2021/05/11 03:09:26;;;;;;;2.87;2.73;;;;;;;;;;5088173;28;20880;-74
2021/05/11 03:11:53;;;;;;;0.77;0.50;;;;;;;;;;5088761;28;20530;-75
2021/05/11 03:14:22;;;;;;;1.30;0.80;;;;;;;;;;5087082;28;20440;-74
2021/05/11 03:16:49;;;;;;;0.70;0.50;;;;;;;;;;5088295;28;20379;-73
2021/05/11 03:19:15;;;;;;;0.80;0.60;;;;;;;;;;5088266;28;20360;-73
2021/05/11 03:21:44;;;;;;;1.20;0.60;;;;;;;;;;5088348;28;20426;-75
2021/05/11 03:24:10;;;;;;;1.30;0.93;;;;;;;;;;5086962;28;20471;-75
2021/05/11 03:26:37;;;;;;;0.83;0.63;;;;;;;;;;5088450;28;20407;-74
2021/05/11 03:29:03;;;;;;;2.67;1.77;;;;;;;;;;5088375;28;20418;-74
2021/05/11 03:31:29;;;;;;;0.83;0.63;;;;;;;;;;5087063;28;20907;-73
2021/05/11 03:33:55;;;;;;;1.00;0.90;;;;;;;;;;5086690;28;20431;-75
2021/05/11 03:36:21;;;;;;;2.60;0.80;;;;;;;;;;5087759;28;20487;-75
2021/05/11 03:38:50;;;;;;;0.90;0.73;;;;;;;;;;5088075;28;20492;-75
2021/05/11 03:41:17;;;;;;;0.80;0.70;;;;;;;;;;5087734;28;20423;-76
2021/05/11 03:43:54;;;;;;;1.00;0.67;;;;;;;;;;5087678;28;20569;-76
2021/05/11 03:46:20;;;;;;;3.60;1.47;;;;;;;;;;5086822;28;20411;-76
2021/05/11 03:48:46;;;;;;;0.90;0.60;;;;;;;;;;5087612;28;20528;-76
2021/05/11 03:51:13;;;;;;;0.77;0.60;;;;;;;;;;5087759;28;20433;-76
2021/05/11 03:53:42;;;;;;;0.80;0.60;;;;;;;;;;5087867;28;20433;-75
2021/05/11 03:56:08;;;;;;;0.70;0.50;;;;;;;;;;5086932;28;20761;-76
2021/05/11 03:58:34;;;;;;;0.70;0.50;;;;;;;;;;5087914;28;20500;-76
2021/05/11 04:01:00;;;;;;;2.70;0.73;;;;;;;;;;5086276;28;20459;-75
2021/05/11 04:03:28;;;;;;;0.70;0.50;;;;;;;;;;5087402;28;20384;-75
2021/05/11 04:05:55;;;;;;;0.80;0.53;;;;;;;;;;5087724;28;20806;-74
2021/05/11 04:11:08;;;;;;;0.90;0.53;;;;;;;;;;5087404;28;20805;-77
2021/05/11 04:16:15;;;;;;;0.70;0.50;;;;;;;;;;5073660;28;20976;-75
2021/05/11 04:18:41;;;;;;;0.70;0.50;;;;;;;;;;5073361;28;20464;-75
2021/05/11 04:21:07;;;;;;;0.80;0.50;;;;;;;;;;5073677;28;20445;-75
2021/05/11 04:23:33;;;;;;;0.70;0.50;;;;;;;;;;5073253;28;20413;-77
2021/05/11 04:26:01;;;;;;;0.80;0.60;;;;;;;;;;5074498;28;20406;-80
2021/05/11 04:28:27;;;;;;;1.40;1.30;;;;;;;;;;5068517;28;20447;-75
2021/05/11 04:30:53;;;;;;;0.70;0.50;;;;;;;;;;5083944;28;20412;-73
2021/05/11 04:33:19;;;;;;;1.90;0.70;;;;;;;;;;5083217;28;20482;-75
2021/05/11 04:35:45;;;;;;;0.70;0.53;;;;;;;;;;5078311;28;20434;-77
2021/05/11 04:38:11;;;;;;;0.80;0.70;;;;;;;;;;5075222;28;20408;-73
2021/05/11 04:40:37;;;;;;;1.17;0.73;;;;;;;;;;5077522;28;20457;-77
2021/05/11 04:43:05;;;;;;;5.90;0.83;;;;;;;;;;5073341;28;20444;-74
2021/05/11 04:45:34;;;;;;;1.87;1.67;;;;;;;;;;5073489;28;20429;-74
2021/05/11 04:48:02;;;;;;;1.63;1.43;;;;;;;;;;5073688;28;20503;-74
2021/05/11 04:50:28;;;;;;;0.80;0.60;;;;;;;;;;5071986;28;20414;-73
2021/05/11 04:52:56;;;;;;;0.90;0.70;;;;;;;;;;5073784;28;20422;-74
2021/05/11 04:55:22;;;;;;;0.97;0.70;;;;;;;;;;5073261;28;20430;-75
2021/05/11 04:57:48;;;;;;;1.37;0.73;;;;;;;;;;5074345;28;20540;-75
2021/05/11 05:00:15;;;;;;;1.20;0.90;;;;;;;;;;5073512;28;20921;-73
2021/05/11 05:02:43;;;;;;;0.70;0.60;;;;;;;;;;5071863;28;20499;-74
2021/05/11 05:05:12;;;;;;;0.90;0.70;;;;;;;;;;5074963;28;20432;-74
2021/05/11 05:07:38;;;;;;;4.20;0.80;;;;;;;;;;5074670;28;20392;-72
2021/05/11 05:10:05;;;;;;;1.87;0.80;;;;;;;;;;5073170;28;20452;-73
2021/05/11 05:12:31;;;;;;;5.40;2.53;;;;;;;;;;5074348;28;20898;-72
2021/05/11 05:14:57;;;;;;;1.90;1.33;;;;;;;;;;5073405;28;20802;-72
2021/05/11 05:17:23;;;;;;;3.13;0.80;;;;;;;;;;5071474;28;20517;-72
2021/05/11 05:19:49;;;;;;;1.77;1.17;;;;;;;;;;5070416;28;20926;-74
2021/05/11 05:22:16;;;;;;;0.87;0.63;;;;;;;;;;5073016;28;20412;-74
2021/05/11 05:24:44;;;;;;;1.57;1.10;;;;;;;;;;5070512;28;20444;-74
2021/05/11 05:27:22;;;;;;;0.80;0.67;;;;;;;;;;5072074;28;20883;-74
2021/05/11 05:29:49;;;;;;;0.80;0.60;;;;;;;;;;5072404;28;20421;-74
2021/05/11 05:32:15;;;;;;;2.70;0.90;;;;;;;;;;5072083;28;20457;-73
2021/05/11 05:34:41;;;;;;;1.03;0.93;;;;;;;;;;5072296;28;20402;-73
2021/05/11 05:37:07;;;;;;;3.13;1.17;;;;;;;;;;5072406;28;20821;-75
2021/05/11 05:39:39;;;;;;;3.47;0.87;;;;;;;;;;5072078;28;20481;-74
2021/05/11 05:42:07;;;;;;;0.97;0.87;;;;;;;;;;5070825;28;21053;-75
2021/05/11 05:44:33;;;;;;;2.20;0.63;;;;;;;;;;5070629;28;20414;-74
2021/05/11 05:47:02;;;;;;;0.80;0.50;;;;;;;;;;5072404;28;20395;-74
2021/05/11 05:49:33;;;;;;;13.37;0.80;;;;;;;;;;5076161;28;20390;-77
2021/05/11 05:52:03;;;;;;;6.63;1.53;;;;;;;;;;5090314;28;20428;-79
2021/05/11 05:54:29;;;;;;;0.80;0.60;;;;;;;;;;5078845;28;20400;-77
2021/05/11 05:56:55;;;;;;;1.00;0.60;;;;;;;;;;5087350;28;20399;-77
2021/05/11 05:59:21;;;;;;;0.87;0.60;;;;;;;;;;5091269;28;20544;-77
2021/05/11 06:01:48;;;;;;;0.70;0.57;;;;;;;;;;5085331;28;20461;-77
2021/05/11 06:04:16;;;;;;;0.90;0.80;;;;;;;;;;5078412;28;20388;-77
2021/05/11 06:06:42;;;;;;;1.00;0.60;;;;;;;;;;5068529;28;20422;-76
2021/05/11 06:09:12;;;;;;;0.70;0.50;;;;;;;;;;5072129;28;20418;-75
2021/05/11 06:19:15;;;;;;;1.57;1.10;;;;;;;;;;5072083;28;20479;-73
2021/05/11 06:21:41;;;;;;;1.00;0.70;;;;;;;;;;5069474;28;20457;-72
2021/05/11 06:24:07;;;;;;;1.70;1.23;;;;;;;;;;5071134;28;20433;-75
2021/05/11 06:26:33;;;;;;;1.60;1.13;;;;;;;;;;5071002;28;20444;-72
2021/05/11 06:29:03;;;;;;;1.67;1.10;;;;;;;;;;5070449;28;20805;-75
2021/05/11 06:31:29;;;;;;;3.77;2.53;;;;;;;;;;5069282;28;20452;-75
2021/05/11 06:33:58;;;;;;;3.80;1.63;;;;;;;;;;5070375;28;21171;-74
2021/05/11 06:36:24;;;;;;;1.60;1.00;;;;;;;;;;5069899;28;20778;-76
2021/05/11 06:38:52;;;;;;;4.10;1.17;;;;;;;;;;5068402;28;20579;-77
2021/05/11 06:41:19;;;;;;;0.87;0.70;;;;;;;;;;5069217;28;20459;-75
2021/05/11 06:43:45;;;;;;;1.10;0.60;;;;;;;;;;5068034;28;20418;-75
2021/05/11 06:47:08;;;;;;;0.90;0.63;;;;;;;;;;5083743;28;20409;-83
2021/05/11 06:54:14;;;;;;;0.80;0.60;;;;;;;;;;5082058;28;20440;-78
2021/05/11 06:56:45;;;;;;;4.70;0.80;;;;;;;;;;5075188;28;20377;-78
2021/05/11 06:59:12;;;;;;;1.30;0.90;;;;;;;;;;5072477;28;20434;-78
2021/05/11 07:01:38;;;;;;;1.47;1.20;;;;;;;;;;5073386;28;20935;-77
2021/05/11 07:04:06;;;;;;;1.50;0.73;;;;;;;;;;5074482;28;20760;-77
2021/05/11 07:06:37;;;;;;;6.83;1.27;;;;;;;;;;5073552;28;20770;-75
2021/05/11 07:09:08;;;;;;;1.90;0.90;;;;;;;;;;5070690;28;20809;-74
2021/05/11 07:14:03;;;;;;;0.73;0.47;;;;;;;;;;5070971;28;20442;-74
2021/05/11 07:16:32;;;;;;;1.00;0.83;;;;;;;;;;5070229;28;20410;-76
2021/05/11 07:18:57;;;;;;;1.10;0.67;;;;;;;;;;5065517;28;20449;-76
2021/05/11 07:21:26;;;;;;;0.70;0.50;;;;;;;;;;5070493;28;20450;-76
2021/05/11 07:23:54;;;;;;;1.07;0.60;;;;;;;;;;5069439;28;20434;-75
2021/05/11 07:31:13;;;;;;;0.70;0.50;;;;;;;;;;5070788;28;20383;-77
2021/05/11 07:33:47;;;;;;;0.80;0.60;;;;;;;;;;5069308;28;20426;-78
2021/05/11 07:36:14;;;;;;;1.77;0.60;;;;;;;;;;5070699;28;20531;-77
2021/05/11 07:38:40;;;;;;;1.40;0.80;;;;;;;;;;5070944;28;20461;-77
2021/05/11 07:41:07;;;;;;;0.73;0.50;;;;;;;;;;5070635;28;20431;-77
2021/05/11 07:43:36;;;;;;;1.33;0.80;;;;;;;;;;5069719;28;20418;-77
2021/05/11 08:17:40;;;;;;;1.47;1.37;;;;;;;;;;5074148;28;20440;-78
2021/05/11 08:30:20;;;;;;;0.90;0.63;;;;;;;;;;5072913;28;20393;-72
2021/05/11 08:32:46;;;;;;;0.97;0.77;;;;;;;;;;5068581;28;20513;-74
2021/05/11 08:35:12;;;;;;;1.10;0.80;;;;;;;;;;5069708;28;20446;-73
2021/05/11 08:37:38;;;;;;;0.70;0.40;;;;;;;;;;5067709;28;20461;-74
2021/05/11 08:40:05;;;;;;;0.80;0.60;;;;;;;;;;5070008;28;20461;-73
2021/05/11 08:42:32;;;;;;;0.80;0.70;;;;;;;;;;5070893;28;20888;-73
2021/05/11 08:45:08;;;;;;;0.90;0.70;;;;;;;;;;5068576;28;20996;-72
2021/05/11 08:47:36;;;;;;;4.80;0.70;;;;;;;;;;5068298;28;20444;-73
2021/05/11 08:50:04;;;;;;;0.80;0.60;;;;;;;;;;5068777;28;20440;-72
2021/05/11 08:52:50;;;;;;;0.70;0.50;;;;;;;;;;5069430;28;20409;-71
2021/05/11 09:07:01;;;;;;;0.70;0.40;;;;;;;;;;5065349;28;20431;-73
2021/05/11 09:15:36;;;;;;;0.70;0.50;;;;;;;;;;5071360;28;20454;-74
2021/05/11 09:26:07;;;;;;;0.77;0.67;;;;;;;;;;5060323;28;20428;-74
2021/05/11 09:28:48;;;;;;;2.40;0.60;;;;;;;;;;5067708;28;20811;-73
2021/05/11 09:31:47;;;;;;;0.80;0.80;;;;;;;;;;5056488;28;21066;-72
2021/05/11 09:34:31;;;;;;;0.70;0.53;;;;;;;;;;5069192;28;20392;-73
2021/05/11 10:48:16;;;;;;;0.70;0.60;;;;;;;;;;5067585;28;20602;-76
2021/05/11 10:50:46;;;;;;;1.00;0.60;;;;;;;;;;5068091;28;20414;-73
2021/05/11 10:53:31;;;;;;;1.00;0.90;;;;;;;;;;5067397;28;20416;-75
2021/05/11 10:56:16;;;;;;;1.10;0.80;;;;;;;;;;5067718;28;20492;-74
2021/05/11 10:59:01;;;;;;;0.80;0.60;;;;;;;;;;5067723;28;20418;-74
2021/05/11 11:01:34;;;;;;;0.93;0.60;;;;;;;;;;5067279;28;21115;-75
2021/05/11 11:04:08;;;;;;;0.87;0.70;;;;;;;;;;5066863;28;20914;-74
2021/05/11 11:06:53;;;;;;;0.80;0.77;;;;;;;;;;5066521;28;20496;-73
2021/05/11 11:09:19;;;;;;;1.70;0.77;;;;;;;;;;5065639;28;20459;-73
2021/05/11 11:11:46;;;;;;;1.80;1.23;;;;;;;;;;5068965;28;20396;-74
2021/05/11 11:14:13;;;;;;;1.50;1.30;;;;;;;;;;5068802;28;21025;-74
2021/05/11 11:16:38;;;;;;;0.80;0.80;;;;;;;;;;5070270;28;20897;-73
2021/05/11 11:19:10;;;;;;;0.90;0.90;;;;;;;;;;5069175;28;20396;-74
2021/05/11 11:22:00;;;;;;;0.80;0.80;;;;;;;;;;5068783;28;20421;-73
2021/05/11 11:24:38;;;;;;;1.13;0.97;;;;;;;;;;5072785;28;20377;-73
2021/05/11 11:27:05;;;;;;;0.80;0.63;;;;;;;;;;5072476;28;20453;-73
2021/05/11 11:29:33;;;;;;;1.00;0.67;;;;;;;;;;5073774;28;20410;-73
2021/05/11 11:31:59;;;;;;;0.80;0.60;;;;;;;;;;5069944;28;20395;-73
2021/05/11 11:34:36;;;;;;;1.00;0.90;;;;;;;;;;5073954;28;20409;-73
2021/05/11 11:37:03;;;;;;;1.33;1.23;;;;;;;;;;5073610;28;20397;-73
2021/05/11 11:39:30;;;;;;;0.70;0.40;;;;;;;;;;5073221;28;20627;-74
2021/05/11 11:41:57;;;;;;;1.00;0.70;;;;;;;;;;5073481;28;20455;-74
2021/05/11 11:44:25;;;;;;;3.53;0.87;;;;;;;;;;5072702;28;20385;-74
2021/05/11 11:46:52;;;;;;;0.90;0.50;;;;;;;;;;5073577;28;20376;-74
2021/05/11 11:49:20;;;;;;;0.70;0.60;;;;;;;;;;5072570;28;20383;-74
2021/05/11 11:51:57;;;;;;;0.70;0.60;;;;;;;;;;5072127;28;20829;-73
2021/05/11 11:54:35;;;;;;;6.40;0.97;;;;;;;;;;5073377;28;20471;-74
2021/05/11 11:59:53;;;;;;;0.70;0.50;;;;;;;;;;5073668;28;20940;-73
2021/05/11 12:02:19;;;;;;;0.80;0.60;;;;;;;;;;5070700;28;20372;-74
2021/05/11 12:04:47;;;;;;;1.70;0.93;;;;;;;;;;5073185;28;20404;-72
2021/05/11 12:07:15;;;;;;;0.70;0.50;;;;;;;;;;5073052;28;20483;-75
2021/05/11 12:09:42;;;;;;;2.30;0.60;;;;;;;;;;5073142;28;20761;-75
2021/05/11 12:12:10;;;;;;;1.63;0.80;;;;;;;;;;5071900;28;20399;-74
2021/05/11 12:14:38;;;;;;;1.20;0.93;;;;;;;;;;5072157;28;20422;-74
2021/05/11 12:17:04;;;;;;;0.70;0.50;;;;;;;;;;5073703;28;20380;-73
2021/05/11 12:19:31;;;;;;;0.70;0.50;;;;;;;;;;5073037;28;20422;-73
2021/05/11 12:22:04;;;;;;;2.13;0.73;;;;;;;;;;5071340;28;21131;-73
2021/05/11 12:24:34;;;;;;;0.70;0.60;;;;;;;;;;5072228;28;20380;-74
2021/05/11 12:27:14;;;;;;;1.17;0.60;;;;;;;;;;5073758;28;20418;-74
2021/05/11 12:29:58;;;;;;;1.27;1.17;;;;;;;;;;5072158;28;20407;-73
2021/05/11 12:32:24;;;;;;;0.70;0.60;;;;;;;;;;5071791;28;20888;-72
2021/05/11 12:35:09;;;;;;;0.70;0.50;;;;;;;;;;5072514;28;20417;-71
2021/05/11 12:37:52;;;;;;;1.13;0.70;;;;;;;;;;5072354;28;20970;-71
2021/05/11 12:42:56;;;;;;;1.00;0.67;;;;;;;;;;5071065;28;20481;-73
2021/05/11 12:45:22;;;;;;;0.90;0.53;;;;;;;;;;5071856;28;20385;-73
2021/05/11 12:48:00;;;;;;;0.90;0.70;;;;;;;;;;5072819;28;20414;-73
2021/05/11 12:50:29;;;;;;;0.70;0.60;;;;;;;;;;5073021;28;20398;-74
2021/05/11 12:53:01;;;;;;;0.90;0.77;;;;;;;;;;5072881;28;20414;-72
2021/05/11 12:56:26;;;;;;;0.70;0.60;;;;;;;;;;5073373;28;20374;-72
2021/05/11 13:01:25;;;;;;;0.80;0.70;;;;;;;;;;5072289;28;20493;-71
2021/05/11 13:25:39;;;;;;;0.70;0.50;;;;;;;;;;5071912;28;20381;-71
2021/05/11 13:35:44;;;;;;;1.37;0.93;;;;;;;;;;5072260;28;20403;-71
2021/05/11 13:38:10;;;;;;;1.00;0.90;;;;;;;;;;5072379;28;20404;-73
2021/05/11 13:40:36;;;;;;;5.90;1.03;;;;;;;;;;5071937;28;20511;-71
2021/05/11 13:43:02;;;;;;;0.80;0.70;;;;;;;;;;5072785;28;20373;-71
2021/05/11 13:45:30;;;;;;;1.00;0.70;;;;;;;;;;5071665;28;20438;-70
2021/05/11 13:48:07;;;;;;;0.80;0.50;;;;;;;;;;5071975;28;20813;-72
2021/05/11 13:50:53;;;;;;;3.03;1.00;;;;;;;;;;5070154;28;20410;-72
2021/05/11 13:53:21;;;;;;;1.13;0.70;;;;;;;;;;5066919;28;20407;-72
2021/05/11 14:04:03;;;;;;;0.80;0.73;;;;;;;;;;5051147;28;20392;-71
2021/05/11 14:06:29;;;;;;;0.70;0.50;;;;;;;;;;5073574;28;20393;-71
2021/05/11 14:08:55;;;;;;;1.57;0.77;;;;;;;;;;5088772;28;20408;-71
2021/05/11 14:11:21;;;;;;;0.70;0.53;;;;;;;;;;5091742;28;20364;-72
2021/05/11 14:13:50;;;;;;;2.60;0.67;;;;;;;;;;5085691;28;20399;-71
2021/05/11 14:16:16;;;;;;;0.90;0.63;;;;;;;;;;5075495;28;20419;-70
2021/05/11 14:18:42;;;;;;;2.10;1.17;;;;;;;;;;5083208;28;20422;-70
2021/05/11 14:21:08;;;;;;;1.10;0.60;;;;;;;;;;5086217;28;20942;-70
2021/05/11 14:23:34;;;;;;;0.83;0.67;;;;;;;;;;5083897;28;20457;-69
2021/05/11 14:26:01;;;;;;;0.80;0.60;;;;;;;;;;5073342;28;20740;-71
2021/05/11 14:28:27;;;;;;;0.90;0.60;;;;;;;;;;5069821;28;20422;-70
2021/05/11 14:30:53;;;;;;;0.80;0.60;;;;;;;;;;5069056;28;20414;-71
2021/05/11 14:33:19;;;;;;;0.80;0.60;;;;;;;;;;5067420;28;20450;-74
2021/05/11 14:35:47;;;;;;;1.00;0.80;;;;;;;;;;5067158;28;20426;-74
2021/05/11 14:38:13;;;;;;;1.10;0.50;;;;;;;;;;5067479;28;20433;-73
2021/05/11 14:40:39;;;;;;;1.10;0.93;;;;;;;;;;5068164;28;20823;-75
2021/05/11 14:43:05;;;;;;;0.97;0.80;;;;;;;;;;5067929;28;20437;-74
2021/05/11 14:45:31;;;;;;;0.87;0.63;;;;;;;;;;5068472;28;20409;-73
2021/05/11 14:47:58;;;;;;;0.90;0.70;;;;;;;;;;5068324;28;20444;-75
2021/05/11 14:50:24;;;;;;;3.83;1.50;;;;;;;;;;5068372;28;20418;-74
2021/05/11 14:52:55;;;;;;;1.20;0.83;;;;;;;;;;5068464;28;20918;-75
2021/05/11 14:55:24;;;;;;;1.10;0.70;;;;;;;;;;5064916;28;20407;-72
2021/05/11 14:57:51;;;;;;;3.70;3.40;;;;;;;;;;5068170;28;20412;-74
2021/05/11 15:00:17;;;;;;;0.80;0.60;;;;;;;;;;5068168;28;20465;-74
2021/05/11 15:02:43;;;;;;;0.80;0.63;;;;;;;;;;5067063;28;20901;-74
2021/05/11 15:05:09;;;;;;;1.73;1.07;;;;;;;;;;5068359;28;20368;-73
2021/05/11 15:07:35;;;;;;;2.93;2.83;;;;;;;;;;5068366;28;20433;-74
2021/05/11 15:10:01;;;;;;;1.63;0.87;;;;;;;;;;5068014;28;20388;-74
2021/05/11 15:12:29;;;;;;;1.40;0.80;;;;;;;;;;5066990;28;20406;-74
2021/05/11 15:14:55;;;;;;;0.80;0.60;;;;;;;;;;5068133;28;20478;-74
2021/05/11 15:19:48;;;;;;;2.77;1.93;;;;;;;;;;5068923;28;20398;-73
2021/05/11 15:22:14;;;;;;;1.00;0.70;;;;;;;;;;5069474;28;20464;-74
2021/05/11 15:24:40;;;;;;;0.90;0.70;;;;;;;;;;5068873;28;20410;-74
2021/05/11 15:27:06;;;;;;;2.33;2.13;;;;;;;;;;5068371;28;20792;-74
2021/05/11 15:29:32;;;;;;;0.80;0.60;;;;;;;;;;5067850;28;20450;-74
2021/05/11 15:31:58;;;;;;;0.80;0.60;;;;;;;;;;5067221;28;20400;-73
2021/05/11 15:34:24;;;;;;;0.80;0.80;;;;;;;;;;5067546;28;20903;-74
2021/05/11 15:36:50;;;;;;;2.30;0.90;;;;;;;;;;5068859;28;20430;-74
2021/05/11 15:39:16;;;;;;;1.00;0.77;;;;;;;;;;5067690;28;20422;-73
2021/05/11 15:41:42;;;;;;;1.00;0.73;;;;;;;;;;5047499;28;20991;-73
2021/05/11 15:44:11;;;;;;;0.90;0.70;;;;;;;;;;5061795;28;20471;-74
2021/05/11 15:46:37;;;;;;;0.70;0.50;;;;;;;;;;5068936;28;20426;-73
2021/05/11 15:49:03;;;;;;;0.70;0.50;;;;;;;;;;5066966;28;20404;-73
2021/05/11 15:51:29;;;;;;;1.83;1.23;;;;;;;;;;5068015;28;20412;-73
2021/05/11 15:53:56;;;;;;;0.70;0.50;;;;;;;;;;5068694;28;20938;-73
2021/05/11 15:56:22;;;;;;;8.33;1.23;;;;;;;;;;5066526;28;20445;-72
2021/05/11 15:58:50;;;;;;;1.20;0.77;;;;;;;;;;5068393;28;20462;-73
2021/05/11 16:01:16;;;;;;;0.70;0.50;;;;;;;;;;5068383;28;20442;-74
2021/05/11 16:03:42;;;;;;;1.13;0.60;;;;;;;;;;5068734;28;20377;-74
2021/05/11 16:06:09;;;;;;;1.40;0.87;;;;;;;;;;5068552;28;20414;-74
2021/05/11 16:08:35;;;;;;;0.80;0.70;;;;;;;;;;5071001;28;20396;-75
2021/05/11 16:11:01;;;;;;;1.67;0.93;;;;;;;;;;5071545;28;20413;-74
2021/05/11 16:13:28;;;;;;;1.23;0.67;;;;;;;;;;5064710;28;20931;-73
2021/05/11 16:15:54;;;;;;;3.00;1.53;;;;;;;;;;5071272;28;20406;-74
2021/05/11 16:18:22;;;;;;;0.70;0.60;;;;;;;;;;5071901;28;20418;-75
2021/05/11 16:20:48;;;;;;;0.80;0.67;;;;;;;;;;5069879;28;20424;-74
2021/05/11 16:23:19;;;;;;;1.13;1.03;;;;;;;;;;5070647;28;20471;-73
2021/05/11 16:25:45;;;;;;;1.33;0.80;;;;;;;;;;5071783;28;20463;-73
2021/05/11 16:28:12;;;;;;;0.70;0.50;;;;;;;;;;5071644;28;20908;-74
2021/05/11 16:30:40;;;;;;;0.70;0.50;;;;;;;;;;5070853;28;20414;-74
2021/05/11 16:33:09;;;;;;;2.00;1.30;;;;;;;;;;5071229;28;20384;-74
2021/05/11 16:35:35;;;;;;;1.03;0.80;;;;;;;;;;5069144;28;21205;-73
2021/05/11 16:38:01;;;;;;;1.07;0.77;;;;;;;;;;5070262;28;20454;-73
2021/05/11 16:40:27;;;;;;;0.90;0.70;;;;;;;;;;5069868;28;20481;-74
2021/05/11 16:42:56;;;;;;;0.80;0.70;;;;;;;;;;5070271;28;20414;-72
2021/05/11 16:45:22;;;;;;;1.63;0.70;;;;;;;;;;5071432;28;20417;-73
2021/05/11 16:47:54;;;;;;;1.90;1.13;;;;;;;;;;5067425;28;20404;-73
2021/05/11 16:50:24;;;;;;;1.93;0.93;;;;;;;;;;5069067;28;20388;-73
2021/05/11 16:52:51;;;;;;;1.07;0.90;;;;;;;;;;5069157;28;20384;-73
2021/05/11 16:55:17;;;;;;;0.80;0.60;;;;;;;;;;5068712;28;20402;-72
2021/05/11 16:57:43;;;;;;;1.07;0.90;;;;;;;;;;5071248;28;20428;-74
2021/05/11 17:00:12;;;;;;;0.83;0.80;;;;;;;;;;5068795;28;20834;-74
2021/05/11 17:02:38;;;;;;;0.70;0.50;;;;;;;;;;5069236;28;20417;-75
2021/05/11 17:05:11;;;;;;;1.23;0.80;;;;;;;;;;5069477;28;20835;-75
2021/05/11 17:07:37;;;;;;;0.80;0.50;;;;;;;;;;5068069;28;20408;-74
2021/05/11 17:10:04;;;;;;;0.83;0.67;;;;;;;;;;5069357;28;20503;-74
2021/05/11 17:12:31;;;;;;;1.60;0.83;;;;;;;;;;5069780;28;20434;-73
2021/05/11 17:14:57;;;;;;;6.93;1.00;;;;;;;;;;5069322;28;20927;-73
2021/05/11 17:17:23;;;;;;;6.33;0.93;;;;;;;;;;5069438;28;20435;-75
2021/05/11 17:19:51;;;;;;;0.83;0.80;;;;;;;;;;5067647;28;20912;-74
2021/05/11 17:22:17;;;;;;;0.80;0.60;;;;;;;;;;5067438;28;20453;-73
2021/05/11 17:24:43;;;;;;;3.83;1.00;;;;;;;;;;5066722;28;20431;-75
2021/05/11 17:27:09;;;;;;;9.53;0.90;;;;;;;;;;5068100;28;20388;-76
2021/05/11 17:29:35;;;;;;;1.00;0.60;;;;;;;;;;5067277;28;20444;-75
2021/05/11 17:32:01;;;;;;;1.37;0.87;;;;;;;;;;5069151;28;20414;-75
2021/05/11 17:34:29;;;;;;;1.43;0.77;;;;;;;;;;5070401;28;20463;-75
2021/05/11 17:36:55;;;;;;;0.70;0.50;;;;;;;;;;5062511;28;20491;-74
2021/05/11 17:39:23;;;;;;;0.80;0.60;;;;;;;;;;5053815;28;20452;-75
2021/05/11 17:41:48;;;;;;;0.80;0.80;;;;;;;;;;5054486;28;20436;-76
2021/05/11 17:44:19;;;;;;;1.03;0.87;;;;;;;;;;5067025;28;20389;-75
2021/05/11 17:46:45;;;;;;;0.80;0.63;;;;;;;;;;5068985;28;20399;-75
2021/05/11 17:49:13;;;;;;;2.70;2.07;;;;;;;;;;5069668;28;20429;-75
2021/05/11 17:51:42;;;;;;;2.67;0.83;;;;;;;;;;5070450;28;20384;-74
2021/05/11 17:54:08;;;;;;;1.50;1.40;;;;;;;;;;5069833;28;20746;-75
2021/05/11 17:56:34;;;;;;;1.70;1.20;;;;;;;;;;5069237;28;20422;-74
2021/05/11 17:59:02;;;;;;;4.97;1.80;;;;;;;;;;5069699;28;20935;-74
2021/05/11 18:01:28;;;;;;;0.70;0.60;;;;;;;;;;5068468;28;20458;-74
2021/05/11 18:03:55;;;;;;;0.70;0.50;;;;;;;;;;5068832;28;20433;-74
2021/05/11 18:06:22;;;;;;;2.20;1.60;;;;;;;;;;5069987;28;20440;-75
2021/05/11 18:08:48;;;;;;;0.80;0.63;;;;;;;;;;5070376;28;20897;-74
2021/05/11 18:11:14;;;;;;;1.40;1.07;;;;;;;;;;5070024;28;20409;-74
2021/05/11 18:13:40;;;;;;;0.80;0.73;;;;;;;;;;5070268;28;20384;-74
2021/05/11 18:16:09;;;;;;;0.70;0.60;;;;;;;;;;5070265;28;21569;-75
2021/05/11 18:18:38;;;;;;;0.90;0.60;;;;;;;;;;5069038;28;20430;-75
2021/05/11 18:21:04;;;;;;;0.87;0.80;;;;;;;;;;5069540;28;20432;-75
2021/05/11 18:23:30;;;;;;;0.80;0.60;;;;;;;;;;5070100;28;20899;-74
2021/05/11 18:25:56;;;;;;;0.80;0.67;;;;;;;;;;5069855;28;20441;-75
2021/05/11 18:28:22;;;;;;;1.20;0.60;;;;;;;;;;5068817;28;20867;-73
2021/05/11 18:30:47;;;;;;;0.90;0.60;;;;;;;;;;5068937;28;20406;-75
2021/05/11 18:33:13;;;;;;;0.90;0.70;;;;;;;;;;5069806;28;20457;-76
2021/05/11 18:35:44;;;;;;;0.80;0.70;;;;;;;;;;5069913;28;20398;-75
2021/05/11 18:38:16;;;;;;;0.70;0.60;;;;;;;;;;5069923;28;21274;-75
2021/05/11 18:40:42;;;;;;;1.10;0.90;;;;;;;;;;5069539;28;20435;-73
2021/05/11 18:43:08;;;;;;;0.80;0.70;;;;;;;;;;5069555;28;20952;-72
2021/05/11 18:45:34;;;;;;;4.03;0.83;;;;;;;;;;5069351;28;20413;-73
2021/05/11 18:48:01;;;;;;;1.97;0.90;;;;;;;;;;5068118;28;20840;-74
2021/05/11 18:50:29;;;;;;;1.00;0.80;;;;;;;;;;5068864;28;20468;-73
2021/05/11 18:52:56;;;;;;;0.90;0.70;;;;;;;;;;5069160;28;20450;-73
2021/05/11 18:55:23;;;;;;;0.80;0.60;;;;;;;;;;5069371;28;20456;-73
2021/05/11 18:57:49;;;;;;;1.00;0.50;;;;;;;;;;5068947;28;20436;-72
2021/05/11 19:00:16;;;;;;;1.57;1.00;;;;;;;;;;5068773;28;20394;-74
2021/05/11 19:02:45;;;;;;;2.23;1.10;;;;;;;;;;5068934;28;20413;-73
2021/05/11 19:05:14;;;;;;;0.90;0.73;;;;;;;;;;5069118;28;20508;-72
2021/05/11 19:07:42;;;;;;;0.80;0.53;;;;;;;;;;5067699;28;20413;-73
2021/05/11 19:10:11;;;;;;;0.90;0.70;;;;;;;;;;5067197;28;20482;-73
2021/05/11 19:12:38;;;;;;;1.00;0.60;;;;;;;;;;5068972;28;20710;-72